KSMF/SMF METAR and TAF weather

Enter ICAO airport designator
Station Type Date Time Source
KSMF METAR 2020/07/11 15:53 UTC NOAA

KSMF 111553Z 14003KT 10SM CLR 23/12 A2997 RMK AO2 SLP147 T02280122


Station Type Date Time Source
KSMF Decoded METAR 2020/07/11 15:53 UTC NOAA

SACRAMENTO INTERNATIONAL AIRPORT, CA, United States (KSMF) 38-42N 121-36W 6M
Jul 11, 2020 - 11:53 AM EDT / 2020.07.11 1553 UTC
Wind: from the SE (140 degrees) at 3 MPH (3 KT):0
Visibility: 10 mile(s):0
Sky conditions: clear
Temperature: 73.0 F (22.8 C)
Dew Point: 54.0 F (12.2 C)
Relative Humidity: 51%
Pressure (altimeter): 29.97 in. Hg (1014 hPa)
ob: KSMF 111553Z 14003KT 10SM CLR 23/12 A2997 RMK AO2 SLP147 T02280122
cycle: 16

Station Type Date Time Source
KSMF TAF 2020/07/11 12:22 UTC NOAA

TAF KSMF 111120Z 1112/1212 19008KT P6SM FEW250

Example: see airport list